createdAt,value
2018-09-01T00:09:21.205Z,0
2018-09-01T00:19:21.229Z,0
2018-09-01T00:29:21.227Z,0
2018-09-01T00:39:21.147Z,0
2018-09-01T00:49:21.233Z,0
2018-09-01T00:59:21.180Z,0
2018-09-01T01:09:21.270Z,0
2018-09-01T01:19:21.299Z,0
2018-09-01T01:29:21.163Z,0
2018-09-01T01:39:21.204Z,0
2018-09-01T01:49:21.184Z,0
2018-09-01T01:59:21.145Z,0
2018-09-01T02:09:21.213Z,0
2018-09-01T02:19:21.163Z,0
2018-09-01T02:29:21.238Z,0
2018-09-01T02:39:21.224Z,0
2018-09-01T02:49:21.180Z,0
2018-09-01T02:59:21.275Z,0
2018-09-01T03:09:21.190Z,0
2018-09-01T03:19:21.179Z,0
2018-09-01T03:29:21.193Z,0
2018-09-01T03:39:21.176Z,0
2018-09-01T03:49:21.214Z,0
2018-09-01T03:59:21.168Z,0
2018-09-01T04:09:21.171Z,0
2018-09-01T04:19:21.208Z,16
2018-09-01T04:29:21.184Z,72
2018-09-01T04:39:21.134Z,204
2018-09-01T04:49:21.208Z,456
2018-09-01T04:59:21.282Z,900
2018-09-01T05:09:21.250Z,1504
2018-09-01T05:19:21.190Z,2088
2018-09-01T05:29:21.255Z,2600
2018-09-01T05:39:21.202Z,3028
2018-09-01T05:49:21.279Z,3336
2018-09-01T05:59:21.238Z,3612
2018-09-01T06:09:21.220Z,3904
2018-09-01T06:19:21.430Z,4360
2018-09-01T06:29:21.254Z,4608
2018-09-01T06:39:21.330Z,4828
2018-09-01T06:49:21.256Z,4948
2018-09-01T06:59:21.345Z,4988
2018-09-01T07:09:21.291Z,5060
2018-09-01T07:19:21.344Z,5176
2018-09-01T07:29:21.303Z,5248
2018-09-01T07:39:21.364Z,5512
2018-09-01T07:49:21.315Z,6372
2018-09-01T07:59:21.383Z,8832
2018-09-01T08:09:21.380Z,48992
2018-09-01T08:19:21.354Z,53632
2018-09-01T08:29:21.345Z,8304
2018-09-01T08:39:21.379Z,5828
2018-09-01T08:49:21.377Z,5952
2018-09-01T08:59:21.415Z,6172
2018-09-01T09:09:21.379Z,8708
2018-09-01T09:19:21.348Z,6932
2018-09-01T09:29:21.429Z,7568
2018-09-01T09:39:21.433Z,7384
2018-09-01T09:49:21.387Z,11092
2018-09-01T09:59:21.360Z,9648
2018-09-01T10:09:21.458Z,8484
2018-09-01T10:19:21.330Z,9652
2018-09-01T10:29:21.348Z,14892
2018-09-01T10:39:21.397Z,8220
2018-09-01T10:49:21.351Z,9296
2018-09-01T10:59:21.468Z,14516
2018-09-01T11:09:21.353Z,7912
2018-09-01T11:19:21.448Z,7324
2018-09-01T11:29:21.356Z,13216
2018-09-01T11:39:21.400Z,8712
2018-09-01T11:49:21.464Z,12356
2018-09-01T11:59:21.432Z,11196
2018-09-01T12:09:21.438Z,11248
2018-09-01T12:19:21.470Z,4760
2018-09-01T12:29:21.383Z,6424
2018-09-01T12:39:21.485Z,7956
2018-09-01T12:49:21.423Z,9460
2018-09-01T12:59:21.398Z,10588
2018-09-01T13:09:21.476Z,5864
2018-09-01T13:19:21.416Z,3520
2018-09-01T13:29:21.537Z,4116
2018-09-01T13:39:21.899Z,4676
2018-09-01T13:49:21.444Z,10156
2018-09-01T13:59:21.492Z,8308
2018-09-01T14:09:21.387Z,6840
2018-09-01T14:19:21.647Z,9096
2018-09-01T14:29:23.260Z,4284
2018-09-01T14:39:21.406Z,5532
2018-09-01T14:49:21.471Z,4816
2018-09-01T14:59:21.522Z,5040
2018-09-01T15:09:21.486Z,5424
2018-09-01T15:19:21.486Z,8276
2018-09-01T15:29:21.395Z,6384
2018-09-01T15:39:21.349Z,6776
2018-09-01T15:49:21.389Z,6096
2018-09-01T15:59:21.465Z,4364
2018-09-01T16:09:21.422Z,2620
2018-09-01T16:19:21.414Z,2664
2018-09-01T16:29:21.500Z,2928
2018-09-01T16:39:21.418Z,2816
2018-09-01T16:49:21.406Z,2916
2018-09-01T16:59:21.430Z,2312
2018-09-01T17:09:21.411Z,2104
2018-09-01T17:19:21.440Z,1832
2018-09-01T17:29:21.418Z,1560
2018-09-01T17:40:13.168Z,1240
2018-09-01T17:50:12.590Z,932
2018-09-01T18:00:14.842Z,616
2018-09-01T18:10:13.414Z,328
2018-09-01T18:20:12.256Z,136
2018-09-01T18:30:13.897Z,44
2018-09-01T18:40:12.045Z,8
2018-09-01T18:50:09.903Z,4
2018-09-01T19:00:08.835Z,0
2018-09-01T19:10:06.510Z,0
2018-09-01T19:20:16.269Z,0
2018-09-01T19:36:31.083Z,0
2018-09-01T19:40:14.786Z,0
2018-09-01T19:50:12.968Z,0
2018-09-01T20:00:11.082Z,0
2018-09-01T20:10:11.728Z,0
2018-09-01T20:20:14.605Z,0
2018-09-01T20:30:14.802Z,0
2018-09-01T20:40:14.165Z,0
2018-09-01T20:50:12.511Z,0
2018-09-01T21:00:14.555Z,0
2018-09-01T21:10:10.290Z,0
2018-09-01T21:20:11.128Z,0
2018-09-01T21:30:08.845Z,0
2018-09-01T21:40:11.011Z,0
2018-09-01T21:50:11.541Z,0
2018-09-01T22:00:09.412Z,0
2018-09-01T22:10:09.653Z,0
2018-09-01T22:20:10.651Z,0
2018-09-01T22:30:11.976Z,0
2018-09-01T22:40:09.578Z,0
2018-09-01T22:50:09.033Z,0
2018-09-01T23:00:13.051Z,0
2018-09-01T23:10:11.490Z,0
2018-09-01T23:20:11.121Z,0
2018-09-01T23:30:11.043Z,0
2018-09-01T23:40:12.034Z,0
2018-09-01T23:50:12.098Z,0
